sensor_id;sensor_type;location;lat;lon;timestamp;P1;durP1;ratioP1;P2;durP2;ratioP2
23099;SDS011;53791;50.696;4.396;2023-01-29T00:00:16;13.25;;;6.40;;
23099;SDS011;53791;50.696;4.396;2023-01-29T00:02:45;10.80;;;7.05;;
23099;SDS011;53791;50.696;4.396;2023-01-29T00:05:13;10.32;;;7.53;;
23099;SDS011;53791;50.696;4.396;2023-01-29T00:07:41;12.25;;;7.00;;
23099;SDS011;53791;50.696;4.396;2023-01-29T00:10:12;17.85;;;7.00;;
23099;SDS011;53791;50.696;4.396;2023-01-29T00:12:39;8.55;;;7.00;;
23099;SDS011;53791;50.696;4.396;2023-01-29T00:15:07;13.25;;;7.08;;
23099;SDS011;53791;50.696;4.396;2023-01-29T00:17:35;12.35;;;6.78;;
23099;SDS011;53791;50.696;4.396;2023-01-29T00:20:03;11.45;;;7.00;;
23099;SDS011;53791;50.696;4.396;2023-01-29T00:22:32;10.32;;;6.30;;
23099;SDS011;53791;50.696;4.396;2023-01-29T00:24:59;10.43;;;6.83;;
23099;SDS011;53791;50.696;4.396;2023-01-29T00:27:27;16.85;;;9.00;;
23099;SDS011;53791;50.696;4.396;2023-01-29T00:29:55;10.65;;;6.37;;
23099;SDS011;53791;50.696;4.396;2023-01-29T00:32:36;8.78;;;6.40;;
23099;SDS011;53791;50.696;4.396;2023-01-29T00:35:03;17.23;;;7.00;;
23099;SDS011;53791;50.696;4.396;2023-01-29T00:37:31;8.00;;;6.60;;
23099;SDS011;53791;50.696;4.396;2023-01-29T00:39:59;6.87;;;5.40;;
23099;SDS011;53791;50.696;4.396;2023-01-29T00:42:28;10.68;;;5.25;;
23099;SDS011;53791;50.696;4.396;2023-01-29T00:45:14;8.05;;;5.37;;
23099;SDS011;53791;50.696;4.396;2023-01-29T00:47:41;11.80;;;7.33;;
23099;SDS011;53791;50.696;4.396;2023-01-29T00:50:09;10.50;;;5.15;;
23099;SDS011;53791;50.696;4.396;2023-01-29T00:52:37;7.80;;;5.22;;
23099;SDS011;53791;50.696;4.396;2023-01-29T00:55:09;9.13;;;6.35;;
23099;SDS011;53791;50.696;4.396;2023-01-29T00:57:37;11.43;;;9.18;;
23099;SDS011;53791;50.696;4.396;2023-01-29T01:00:06;11.22;;;7.25;;
23099;SDS011;53791;50.696;4.396;2023-01-29T01:02:35;6.60;;;5.90;;
23099;SDS011;53791;50.696;4.396;2023-01-29T01:05:21;12.03;;;7.17;;
23099;SDS011;53791;50.696;4.396;2023-01-29T01:07:50;15.85;;;6.90;;
23099;SDS011;53791;50.696;4.396;2023-01-29T01:10:24;11.88;;;6.33;;
23099;SDS011;53791;50.696;4.396;2023-01-29T01:13:01;12.43;;;7.65;;
23099;SDS011;53791;50.696;4.396;2023-01-29T01:15:26;8.73;;;7.22;;
23099;SDS011;53791;50.696;4.396;2023-01-29T01:18:01;6.78;;;5.25;;
23099;SDS011;53791;50.696;4.396;2023-01-29T01:20:26;8.48;;;6.10;;
23099;SDS011;53791;50.696;4.396;2023-01-29T01:22:55;11.10;;;6.87;;
23099;SDS011;53791;50.696;4.396;2023-01-29T01:25:24;11.33;;;6.40;;
23099;SDS011;53791;50.696;4.396;2023-01-29T01:27:52;10.03;;;5.75;;
23099;SDS011;53791;50.696;4.396;2023-01-29T01:30:21;9.60;;;5.67;;
23099;SDS011;53791;50.696;4.396;2023-01-29T01:32:51;11.22;;;5.22;;
23099;SDS011;53791;50.696;4.396;2023-01-29T01:35:18;9.55;;;6.15;;
23099;SDS011;53791;50.696;4.396;2023-01-29T01:37:46;9.93;;;5.70;;
23099;SDS011;53791;50.696;4.396;2023-01-29T01:40:15;7.28;;;5.70;;
23099;SDS011;53791;50.696;4.396;2023-01-29T01:42:50;9.25;;;5.20;;
23099;SDS011;53791;50.696;4.396;2023-01-29T01:45:19;4.65;;;3.87;;
23099;SDS011;53791;50.696;4.396;2023-01-29T01:48:01;8.80;;;5.47;;
23099;SDS011;53791;50.696;4.396;2023-01-29T01:50:48;5.58;;;4.28;;
23099;SDS011;53791;50.696;4.396;2023-01-29T01:53:17;7.90;;;4.58;;
23099;SDS011;53791;50.696;4.396;2023-01-29T01:55:54;6.08;;;5.47;;
23099;SDS011;53791;50.696;4.396;2023-01-29T01:58:25;8.48;;;5.40;;
23099;SDS011;53791;50.696;4.396;2023-01-29T02:00:54;9.03;;;5.67;;
23099;SDS011;53791;50.696;4.396;2023-01-29T02:03:22;7.37;;;5.97;;
23099;SDS011;53791;50.696;4.396;2023-01-29T02:06:09;16.73;;;7.05;;
23099;SDS011;53791;50.696;4.396;2023-01-29T02:08:56;8.53;;;5.92;;
23099;SDS011;53791;50.696;4.396;2023-01-29T02:11:46;7.70;;;6.05;;
23099;SDS011;53791;50.696;4.396;2023-01-29T02:14:13;5.08;;;4.05;;
23099;SDS011;53791;50.696;4.396;2023-01-29T02:16:41;7.60;;;5.08;;
23099;SDS011;53791;50.696;4.396;2023-01-29T02:19:15;10.75;;;6.00;;
23099;SDS011;53791;50.696;4.396;2023-01-29T02:24:23;7.72;;;5.40;;
23099;SDS011;53791;50.696;4.396;2023-01-29T02:27:16;4.90;;;4.40;;
23099;SDS011;53791;50.696;4.396;2023-01-29T02:29:53;5.78;;;3.83;;
23099;SDS011;53791;50.696;4.396;2023-01-29T02:32:29;5.45;;;4.28;;
23099;SDS011;53791;50.696;4.396;2023-01-29T02:35:15;3.70;;;2.92;;
23099;SDS011;53791;50.696;4.396;2023-01-29T02:37:56;5.53;;;3.80;;
23099;SDS011;53791;50.696;4.396;2023-01-29T02:40:42;11.88;;;5.15;;
23099;SDS011;53791;50.696;4.396;2023-01-29T02:46:17;5.95;;;3.98;;
23099;SDS011;53791;50.696;4.396;2023-01-29T02:48:56;8.33;;;4.47;;
23099;SDS011;53791;50.696;4.396;2023-01-29T02:51:43;6.65;;;3.95;;
23099;SDS011;53791;50.696;4.396;2023-01-29T02:54:31;12.63;;;4.85;;
23099;SDS011;53791;50.696;4.396;2023-01-29T02:57:04;4.33;;;2.87;;
23099;SDS011;53791;50.696;4.396;2023-01-29T02:59:42;10.20;;;6.80;;
23099;SDS011;53791;50.696;4.396;2023-01-29T03:02:22;4.87;;;4.30;;
23099;SDS011;53791;50.696;4.396;2023-01-29T03:04:51;5.58;;;4.00;;
23099;SDS011;53791;50.696;4.396;2023-01-29T03:07:22;12.93;;;4.15;;
23099;SDS011;53791;50.696;4.396;2023-01-29T03:10:12;11.45;;;4.75;;
23099;SDS011;53791;50.696;4.396;2023-01-29T03:12:59;5.58;;;3.45;;
23099;SDS011;53791;50.696;4.396;2023-01-29T03:15:26;5.12;;;3.52;;
23099;SDS011;53791;50.696;4.396;2023-01-29T03:18:01;4.85;;;4.03;;
23099;SDS011;53791;50.696;4.396;2023-01-29T03:20:33;4.20;;;3.33;;
23099;SDS011;53791;50.696;4.396;2023-01-29T03:23:04;7.05;;;4.30;;
23099;SDS011;53791;50.696;4.396;2023-01-29T03:25:33;8.55;;;4.65;;
23099;SDS011;53791;50.696;4.396;2023-01-29T03:28:21;5.28;;;4.65;;
23099;SDS011;53791;50.696;4.396;2023-01-29T03:31:08;8.05;;;5.00;;
23099;SDS011;53791;50.696;4.396;2023-01-29T03:34:15;6.25;;;4.87;;
23099;SDS011;53791;50.696;4.396;2023-01-29T03:36:50;5.28;;;3.75;;
23099;SDS011;53791;50.696;4.396;2023-01-29T03:39:20;11.97;;;4.22;;
23099;SDS011;53791;50.696;4.396;2023-01-29T03:42:12;4.15;;;3.75;;
23099;SDS011;53791;50.696;4.396;2023-01-29T03:47:26;5.37;;;4.47;;
23099;SDS011;53791;50.696;4.396;2023-01-29T03:53:02;4.87;;;3.87;;
23099;SDS011;53791;50.696;4.396;2023-01-29T03:58:04;7.72;;;5.97;;
23099;SDS011;53791;50.696;4.396;2023-01-29T04:00:54;6.55;;;5.70;;
23099;SDS011;53791;50.696;4.396;2023-01-29T04:03:22;3.17;;;2.87;;
23099;SDS011;53791;50.696;4.396;2023-01-29T04:05:55;10.10;;;5.75;;
23099;SDS011;53791;50.696;4.396;2023-01-29T04:08:26;7.37;;;5.10;;
23099;SDS011;53791;50.696;4.396;2023-01-29T04:10:58;10.38;;;5.28;;
23099;SDS011;53791;50.696;4.396;2023-01-29T04:13:27;33.13;;;6.97;;
23099;SDS011;53791;50.696;4.396;2023-01-29T04:15:58;9.85;;;5.53;;
23099;SDS011;53791;50.696;4.396;2023-01-29T04:18:28;11.85;;;4.47;;
23099;SDS011;53791;50.696;4.396;2023-01-29T04:20:56;11.88;;;4.40;;
23099;SDS011;53791;50.696;4.396;2023-01-29T04:23:26;7.90;;;5.80;;
23099;SDS011;53791;50.696;4.396;2023-01-29T04:26:06;7.78;;;5.05;;
23099;SDS011;53791;50.696;4.396;2023-01-29T04:28:58;6.80;;;5.12;;
23099;SDS011;53791;50.696;4.396;2023-01-29T04:31:31;8.68;;;4.40;;
23099;SDS011;53791;50.696;4.396;2023-01-29T04:34:22;4.67;;;4.20;;
23099;SDS011;53791;50.696;4.396;2023-01-29T04:36:35;7.03;;;4.87;;
23099;SDS011;53791;50.696;4.396;2023-01-29T04:39:23;5.83;;;5.25;;
23099;SDS011;53791;50.696;4.396;2023-01-29T04:41:57;11.22;;;3.10;;
23099;SDS011;53791;50.696;4.396;2023-01-29T04:47:20;5.45;;;4.35;;
23099;SDS011;53791;50.696;4.396;2023-01-29T04:50:15;5.60;;;4.37;;
23099;SDS011;53791;50.696;4.396;2023-01-29T04:53:02;6.60;;;4.20;;
23099;SDS011;53791;50.696;4.396;2023-01-29T04:55:35;4.47;;;2.40;;
23099;SDS011;53791;50.696;4.396;2023-01-29T04:58:24;10.43;;;6.25;;
23099;SDS011;53791;50.696;4.396;2023-01-29T05:00:53;4.75;;;4.25;;
23099;SDS011;53791;50.696;4.396;2023-01-29T05:03:23;7.85;;;5.12;;
23099;SDS011;53791;50.696;4.396;2023-01-29T05:05:53;4.22;;;2.80;;
23099;SDS011;53791;50.696;4.396;2023-01-29T05:08:23;6.78;;;4.67;;
23099;SDS011;53791;50.696;4.396;2023-01-29T05:10:52;6.22;;;3.25;;
23099;SDS011;53791;50.696;4.396;2023-01-29T05:13:22;6.83;;;4.72;;
23099;SDS011;53791;50.696;4.396;2023-01-29T05:15:54;4.87;;;4.00;;
23099;SDS011;53791;50.696;4.396;2023-01-29T05:18:30;8.03;;;4.15;;
23099;SDS011;53791;50.696;4.396;2023-01-29T05:20:59;8.28;;;4.30;;
23099;SDS011;53791;50.696;4.396;2023-01-29T05:23:29;9.65;;;4.67;;
23099;SDS011;53791;50.696;4.396;2023-01-29T05:25:56;4.62;;;3.27;;
23099;SDS011;53791;50.696;4.396;2023-01-29T05:28:24;9.00;;;4.20;;
23099;SDS011;53791;50.696;4.396;2023-01-29T05:30:52;6.87;;;4.03;;
23099;SDS011;53791;50.696;4.396;2023-01-29T05:33:25;6.72;;;4.87;;
23099;SDS011;53791;50.696;4.396;2023-01-29T05:35:55;4.45;;;3.45;;
23099;SDS011;53791;50.696;4.396;2023-01-29T05:38:24;3.42;;;2.60;;
23099;SDS011;53791;50.696;4.396;2023-01-29T05:40:52;7.97;;;4.35;;
23099;SDS011;53791;50.696;4.396;2023-01-29T05:43:20;8.50;;;3.83;;
23099;SDS011;53791;50.696;4.396;2023-01-29T05:45:56;3.87;;;3.10;;
23099;SDS011;53791;50.696;4.396;2023-01-29T05:48:23;4.08;;;3.67;;
23099;SDS011;53791;50.696;4.396;2023-01-29T05:50:53;3.83;;;3.52;;
23099;SDS011;53791;50.696;4.396;2023-01-29T05:53:24;4.50;;;3.45;;
23099;SDS011;53791;50.696;4.396;2023-01-29T05:55:51;8.00;;;4.65;;
23099;SDS011;53791;50.696;4.396;2023-01-29T05:58:20;9.40;;;3.58;;
23099;SDS011;53791;50.696;4.396;2023-01-29T06:00:48;4.72;;;3.65;;
23099;SDS011;53791;50.696;4.396;2023-01-29T06:03:16;7.05;;;4.97;;
23099;SDS011;53791;50.696;4.396;2023-01-29T06:05:43;5.12;;;4.10;;
23099;SDS011;53791;50.696;4.396;2023-01-29T06:08:11;6.10;;;3.65;;
23099;SDS011;53791;50.696;4.396;2023-01-29T06:10:38;7.12;;;4.90;;
23099;SDS011;53791;50.696;4.396;2023-01-29T06:13:06;11.78;;;5.65;;
23099;SDS011;53791;50.696;4.396;2023-01-29T06:15:33;3.85;;;3.45;;
23099;SDS011;53791;50.696;4.396;2023-01-29T06:18:01;5.25;;;3.40;;
23099;SDS011;53791;50.696;4.396;2023-01-29T06:20:28;6.42;;;4.67;;
23099;SDS011;53791;50.696;4.396;2023-01-29T06:22:57;6.87;;;4.83;;
23099;SDS011;53791;50.696;4.396;2023-01-29T06:25:24;4.78;;;4.03;;
23099;SDS011;53791;50.696;4.396;2023-01-29T06:27:52;9.48;;;4.75;;
23099;SDS011;53791;50.696;4.396;2023-01-29T06:30:19;5.90;;;4.10;;
23099;SDS011;53791;50.696;4.396;2023-01-29T06:32:47;5.65;;;3.87;;
23099;SDS011;53791;50.696;4.396;2023-01-29T06:35:16;4.95;;;4.45;;
23099;SDS011;53791;50.696;4.396;2023-01-29T06:37:43;5.62;;;3.83;;
23099;SDS011;53791;50.696;4.396;2023-01-29T06:40:12;6.17;;;3.75;;
23099;SDS011;53791;50.696;4.396;2023-01-29T06:42:41;7.60;;;4.58;;
23099;SDS011;53791;50.696;4.396;2023-01-29T06:45:09;4.35;;;3.80;;
23099;SDS011;53791;50.696;4.396;2023-01-29T06:47:37;6.70;;;3.90;;
23099;SDS011;53791;50.696;4.396;2023-01-29T06:50:10;7.92;;;5.17;;
23099;SDS011;53791;50.696;4.396;2023-01-29T06:52:37;10.32;;;4.40;;
23099;SDS011;53791;50.696;4.396;2023-01-29T06:55:05;8.43;;;4.53;;
23099;SDS011;53791;50.696;4.396;2023-01-29T06:57:33;10.32;;;3.85;;
23099;SDS011;53791;50.696;4.396;2023-01-29T07:00:00;8.73;;;5.97;;
23099;SDS011;53791;50.696;4.396;2023-01-29T07:02:29;4.90;;;4.30;;
23099;SDS011;53791;50.696;4.396;2023-01-29T07:04:56;10.63;;;5.67;;
23099;SDS011;53791;50.696;4.396;2023-01-29T07:07:24;10.20;;;5.30;;
23099;SDS011;53791;50.696;4.396;2023-01-29T07:09:52;4.12;;;3.72;;
23099;SDS011;53791;50.696;4.396;2023-01-29T07:12:19;6.30;;;4.58;;
23099;SDS011;53791;50.696;4.396;2023-01-29T07:14:48;7.75;;;5.67;;
23099;SDS011;53791;50.696;4.396;2023-01-29T07:17:15;7.25;;;4.20;;
23099;SDS011;53791;50.696;4.396;2023-01-29T07:19:43;8.85;;;5.45;;
23099;SDS011;53791;50.696;4.396;2023-01-29T07:22:11;4.90;;;3.35;;
23099;SDS011;53791;50.696;4.396;2023-01-29T07:24:39;6.80;;;4.87;;
23099;SDS011;53791;50.696;4.396;2023-01-29T07:27:06;6.72;;;4.62;;
23099;SDS011;53791;50.696;4.396;2023-01-29T07:29:35;13.13;;;4.45;;
23099;SDS011;53791;50.696;4.396;2023-01-29T07:32:02;9.25;;;5.60;;
23099;SDS011;53791;50.696;4.396;2023-01-29T07:34:30;12.43;;;5.25;;
23099;SDS011;53791;50.696;4.396;2023-01-29T07:36:57;5.40;;;4.30;;
23099;SDS011;53791;50.696;4.396;2023-01-29T07:39:25;9.98;;;3.67;;
23099;SDS011;53791;50.696;4.396;2023-01-29T07:41:52;9.35;;;4.35;;
23099;SDS011;53791;50.696;4.396;2023-01-29T07:44:20;5.95;;;5.35;;
23099;SDS011;53791;50.696;4.396;2023-01-29T07:46:47;11.35;;;7.22;;
23099;SDS011;53791;50.696;4.396;2023-01-29T07:49:15;4.97;;;3.45;;
23099;SDS011;53791;50.696;4.396;2023-01-29T07:51:44;5.92;;;3.58;;
23099;SDS011;53791;50.696;4.396;2023-01-29T07:54:11;7.03;;;4.92;;
23099;SDS011;53791;50.696;4.396;2023-01-29T07:56:39;7.58;;;4.33;;
23099;SDS011;53791;50.696;4.396;2023-01-29T07:59:07;4.85;;;3.33;;
23099;SDS011;53791;50.696;4.396;2023-01-29T08:01:34;13.55;;;3.85;;
23099;SDS011;53791;50.696;4.396;2023-01-29T08:04:02;7.40;;;4.33;;
23099;SDS011;53791;50.696;4.396;2023-01-29T08:06:29;8.55;;;5.10;;
23099;SDS011;53791;50.696;4.396;2023-01-29T08:08:57;10.25;;;5.47;;
23099;SDS011;53791;50.696;4.396;2023-01-29T08:11:24;7.08;;;4.75;;
23099;SDS011;53791;50.696;4.396;2023-01-29T08:13:52;6.55;;;4.47;;
23099;SDS011;53791;50.696;4.396;2023-01-29T08:16:19;7.75;;;5.95;;
23099;SDS011;53791;50.696;4.396;2023-01-29T08:18:47;8.55;;;4.70;;
23099;SDS011;53791;50.696;4.396;2023-01-29T08:21:14;8.28;;;5.35;;
23099;SDS011;53791;50.696;4.396;2023-01-29T08:23:42;5.97;;;4.72;;
23099;SDS011;53791;50.696;4.396;2023-01-29T08:26:09;4.58;;;3.27;;
23099;SDS011;53791;50.696;4.396;2023-01-29T08:28:37;9.90;;;5.58;;
23099;SDS011;53791;50.696;4.396;2023-01-29T08:31:11;9.05;;;4.72;;
23099;SDS011;53791;50.696;4.396;2023-01-29T08:33:41;4.53;;;4.08;;
23099;SDS011;53791;50.696;4.396;2023-01-29T08:36:09;5.10;;;3.92;;
23099;SDS011;53791;50.696;4.396;2023-01-29T08:38:38;6.12;;;3.60;;
23099;SDS011;53791;50.696;4.396;2023-01-29T08:41:07;7.70;;;3.75;;
23099;SDS011;53791;50.696;4.396;2023-01-29T08:43:34;10.38;;;4.85;;
23099;SDS011;53791;50.696;4.396;2023-01-29T08:46:05;16.37;;;5.80;;
23099;SDS011;53791;50.696;4.396;2023-01-29T08:48:33;5.15;;;4.12;;
23099;SDS011;53791;50.696;4.396;2023-01-29T08:51:01;6.12;;;4.65;;
23099;SDS011;53791;50.696;4.396;2023-01-29T08:53:29;4.45;;;3.42;;
23099;SDS011;53791;50.696;4.396;2023-01-29T08:55:57;10.60;;;5.20;;
23099;SDS011;53791;50.696;4.396;2023-01-29T08:58:24;4.35;;;3.60;;
23099;SDS011;53791;50.696;4.396;2023-01-29T09:00:52;9.33;;;4.37;;
23099;SDS011;53791;50.696;4.396;2023-01-29T09:03:20;6.15;;;4.08;;
23099;SDS011;53791;50.696;4.396;2023-01-29T09:05:47;9.90;;;5.83;;
23099;SDS011;53791;50.696;4.396;2023-01-29T09:08:15;13.72;;;4.67;;
23099;SDS011;53791;50.696;4.396;2023-01-29T09:10:42;6.42;;;3.58;;
23099;SDS011;53791;50.696;4.396;2023-01-29T09:13:10;9.55;;;5.25;;
23099;SDS011;53791;50.696;4.396;2023-01-29T09:15:38;8.10;;;4.90;;
23099;SDS011;53791;50.696;4.396;2023-01-29T09:18:05;6.67;;;4.25;;
23099;SDS011;53791;50.696;4.396;2023-01-29T09:20:33;6.30;;;5.08;;
23099;SDS011;53791;50.696;4.396;2023-01-29T09:23:03;13.28;;;6.08;;
23099;SDS011;53791;50.696;4.396;2023-01-29T09:25:32;11.00;;;6.03;;
23099;SDS011;53791;50.696;4.396;2023-01-29T09:27:59;5.10;;;4.35;;
23099;SDS011;53791;50.696;4.396;2023-01-29T09:30:27;7.65;;;5.03;;
23099;SDS011;53791;50.696;4.396;2023-01-29T09:32:55;8.10;;;4.90;;
23099;SDS011;53791;50.696;4.396;2023-01-29T09:35:22;8.13;;;4.62;;
23099;SDS011;53791;50.696;4.396;2023-01-29T09:37:50;14.33;;;7.08;;
23099;SDS011;53791;50.696;4.396;2023-01-29T09:43:07;6.05;;;4.90;;
23099;SDS011;53791;50.696;4.396;2023-01-29T09:48:19;5.12;;;3.83;;
23099;SDS011;53791;50.696;4.396;2023-01-29T09:50:49;9.90;;;4.62;;
23099;SDS011;53791;50.696;4.396;2023-01-29T09:53:37;5.25;;;4.00;;
23099;SDS011;53791;50.696;4.396;2023-01-29T09:56:18;8.43;;;5.67;;
23099;SDS011;53791;50.696;4.396;2023-01-29T09:58:44;5.70;;;4.42;;
23099;SDS011;53791;50.696;4.396;2023-01-29T10:01:21;4.45;;;4.05;;
23099;SDS011;53791;50.696;4.396;2023-01-29T10:06:52;16.07;;;5.37;;
23099;SDS011;53791;50.696;4.396;2023-01-29T10:12:35;7.62;;;3.98;;
23099;SDS011;53791;50.696;4.396;2023-01-29T10:18:32;5.33;;;3.22;;
23099;SDS011;53791;50.696;4.396;2023-01-29T10:23:51;9.13;;;4.58;;
23099;SDS011;53791;50.696;4.396;2023-01-29T10:26:14;6.97;;;4.25;;
23099;SDS011;53791;50.696;4.396;2023-01-29T10:28:44;4.67;;;3.67;;
23099;SDS011;53791;50.696;4.396;2023-01-29T10:31:18;6.22;;;4.83;;
23099;SDS011;53791;50.696;4.396;2023-01-29T10:34:02;5.53;;;4.03;;
23099;SDS011;53791;50.696;4.396;2023-01-29T10:36:44;4.62;;;3.05;;
23099;SDS011;53791;50.696;4.396;2023-01-29T10:39:14;11.30;;;4.12;;
23099;SDS011;53791;50.696;4.396;2023-01-29T10:41:51;7.08;;;4.42;;
23099;SDS011;53791;50.696;4.396;2023-01-29T10:44:36;5.62;;;3.62;;
23099;SDS011;53791;50.696;4.396;2023-01-29T10:50:31;7.28;;;3.45;;
23099;SDS011;53791;50.696;4.396;2023-01-29T10:52:43;6.58;;;4.55;;
23099;SDS011;53791;50.696;4.396;2023-01-29T10:55:34;5.67;;;3.62;;
23099;SDS011;53791;50.696;4.396;2023-01-29T10:58:19;4.40;;;3.37;;
23099;SDS011;53791;50.696;4.396;2023-01-29T11:00:47;6.65;;;3.70;;
23099;SDS011;53791;50.696;4.396;2023-01-29T11:03:16;5.35;;;4.12;;
23099;SDS011;53791;50.696;4.396;2023-01-29T11:05:57;6.72;;;4.12;;
23099;SDS011;53791;50.696;4.396;2023-01-29T11:09:01;13.50;;;8.30;;
23099;SDS011;53791;50.696;4.396;2023-01-29T11:11:48;4.97;;;3.12;;
23099;SDS011;53791;50.696;4.396;2023-01-29T11:14:30;5.70;;;4.85;;
23099;SDS011;53791;50.696;4.396;2023-01-29T11:16:59;6.78;;;5.03;;
23099;SDS011;53791;50.696;4.396;2023-01-29T11:19:37;10.13;;;5.00;;
23099;SDS011;53791;50.696;4.396;2023-01-29T11:22:16;7.92;;;5.03;;
23099;SDS011;53791;50.696;4.396;2023-01-29T11:24:39;6.00;;;5.40;;
23099;SDS011;53791;50.696;4.396;2023-01-29T11:27:14;5.45;;;3.65;;
23099;SDS011;53791;50.696;4.396;2023-01-29T11:29:44;5.80;;;3.60;;
23099;SDS011;53791;50.696;4.396;2023-01-29T11:32:24;6.67;;;4.90;;
23099;SDS011;53791;50.696;4.396;2023-01-29T11:35:18;5.50;;;3.60;;
23099;SDS011;53791;50.696;4.396;2023-01-29T11:37:42;9.48;;;4.62;;
23099;SDS011;53791;50.696;4.396;2023-01-29T11:42:47;4.95;;;4.15;;
23099;SDS011;53791;50.696;4.396;2023-01-29T11:45:31;8.50;;;4.80;;
23099;SDS011;53791;50.696;4.396;2023-01-29T11:47:57;5.45;;;4.22;;
23099;SDS011;53791;50.696;4.396;2023-01-29T11:50:27;4.75;;;3.35;;
23099;SDS011;53791;50.696;4.396;2023-01-29T11:52:59;4.65;;;3.77;;
23099;SDS011;53791;50.696;4.396;2023-01-29T11:55:29;7.03;;;4.28;;
23099;SDS011;53791;50.696;4.396;2023-01-29T11:58:02;6.10;;;3.35;;
23099;SDS011;53791;50.696;4.396;2023-01-29T12:00:32;5.33;;;3.37;;
23099;SDS011;53791;50.696;4.396;2023-01-29T12:03:06;5.50;;;3.02;;
23099;SDS011;53791;50.696;4.396;2023-01-29T12:05:34;3.27;;;2.98;;
23099;SDS011;53791;50.696;4.396;2023-01-29T12:08:09;6.62;;;3.17;;
23099;SDS011;53791;50.696;4.396;2023-01-29T12:10:35;3.77;;;2.85;;
23099;SDS011;53791;50.696;4.396;2023-01-29T12:15:41;3.52;;;2.92;;
23099;SDS011;53791;50.696;4.396;2023-01-29T12:18:25;12.10;;;4.33;;
23099;SDS011;53791;50.696;4.396;2023-01-29T12:21:03;3.37;;;2.45;;
23099;SDS011;53791;50.696;4.396;2023-01-29T12:23:40;3.33;;;2.77;;
23099;SDS011;53791;50.696;4.396;2023-01-29T12:31:49;4.40;;;2.20;;
23099;SDS011;53791;50.696;4.396;2023-01-29T12:34:40;3.45;;;3.05;;
23099;SDS011;53791;50.696;4.396;2023-01-29T12:37:20;3.92;;;2.40;;
23099;SDS011;53791;50.696;4.396;2023-01-29T12:40:14;3.45;;;2.85;;
23099;SDS011;53791;50.696;4.396;2023-01-29T12:42:46;5.55;;;2.67;;
23099;SDS011;53791;50.696;4.396;2023-01-29T12:45:20;2.87;;;2.55;;
23099;SDS011;53791;50.696;4.396;2023-01-29T12:47:50;5.50;;;3.35;;
23099;SDS011;53791;50.696;4.396;2023-01-29T12:50:20;3.12;;;2.08;;
23099;SDS011;53791;50.696;4.396;2023-01-29T12:55:27;3.20;;;2.42;;
23099;SDS011;53791;50.696;4.396;2023-01-29T12:58:13;5.45;;;2.87;;
23099;SDS011;53791;50.696;4.396;2023-01-29T13:00:42;5.22;;;3.67;;
23099;SDS011;53791;50.696;4.396;2023-01-29T13:06:04;3.25;;;2.65;;
23099;SDS011;53791;50.696;4.396;2023-01-29T13:08:40;2.40;;;1.90;;
23099;SDS011;53791;50.696;4.396;2023-01-29T13:11:12;2.50;;;2.22;;
23099;SDS011;53791;50.696;4.396;2023-01-29T13:13:53;3.17;;;2.72;;
23099;SDS011;53791;50.696;4.396;2023-01-29T13:16:24;4.10;;;2.80;;
23099;SDS011;53791;50.696;4.396;2023-01-29T13:18:53;4.65;;;2.47;;
23099;SDS011;53791;50.696;4.396;2023-01-29T13:21:40;2.20;;;1.95;;
23099;SDS011;53791;50.696;4.396;2023-01-29T13:24:10;2.70;;;2.05;;
23099;SDS011;53791;50.696;4.396;2023-01-29T13:26:39;3.85;;;2.67;;
23099;SDS011;53791;50.696;4.396;2023-01-29T13:29:15;4.50;;;3.25;;
23099;SDS011;53791;50.696;4.396;2023-01-29T13:31:57;2.50;;;2.05;;
23099;SDS011;53791;50.696;4.396;2023-01-29T13:34:27;4.83;;;2.45;;
23099;SDS011;53791;50.696;4.396;2023-01-29T13:37:03;2.85;;;2.10;;
23099;SDS011;53791;50.696;4.396;2023-01-29T13:39:35;4.33;;;2.47;;
23099;SDS011;53791;50.696;4.396;2023-01-29T13:42:16;5.12;;;3.50;;
23099;SDS011;53791;50.696;4.396;2023-01-29T13:44:52;3.40;;;2.60;;
23099;SDS011;53791;50.696;4.396;2023-01-29T13:47:23;3.45;;;3.08;;
23099;SDS011;53791;50.696;4.396;2023-01-29T13:50:02;3.35;;;2.75;;
23099;SDS011;53791;50.696;4.396;2023-01-29T13:52:39;7.95;;;3.08;;
23099;SDS011;53791;50.696;4.396;2023-01-29T13:55:22;7.80;;;4.17;;
23099;SDS011;53791;50.696;4.396;2023-01-29T13:57:51;4.00;;;2.75;;
23099;SDS011;53791;50.696;4.396;2023-01-29T14:08:35;7.42;;;3.27;;
23099;SDS011;53791;50.696;4.396;2023-01-29T14:10:36;7.30;;;3.83;;
23099;SDS011;53791;50.696;4.396;2023-01-29T14:18:30;3.72;;;2.85;;
23099;SDS011;53791;50.696;4.396;2023-01-29T14:20:59;7.58;;;3.40;;
23099;SDS011;53791;50.696;4.396;2023-01-29T14:23:44;5.62;;;2.83;;
23099;SDS011;53791;50.696;4.396;2023-01-29T14:34:35;2.75;;;2.30;;
23099;SDS011;53791;50.696;4.396;2023-01-29T14:37:20;3.42;;;2.45;;
23099;SDS011;53791;50.696;4.396;2023-01-29T14:39:47;3.65;;;2.35;;
23099;SDS011;53791;50.696;4.396;2023-01-29T14:42:23;6.30;;;3.20;;
23099;SDS011;53791;50.696;4.396;2023-01-29T14:44:57;6.92;;;2.62;;
23099;SDS011;53791;50.696;4.396;2023-01-29T14:50:00;9.05;;;3.72;;
23099;SDS011;53791;50.696;4.396;2023-01-29T14:52:39;3.08;;;2.05;;
23099;SDS011;53791;50.696;4.396;2023-01-29T14:55:14;2.70;;;2.25;;
23099;SDS011;53791;50.696;4.396;2023-01-29T14:57:50;4.92;;;2.15;;
23099;SDS011;53791;50.696;4.396;2023-01-29T15:00:26;8.60;;;4.33;;
23099;SDS011;53791;50.696;4.396;2023-01-29T15:02:56;4.70;;;2.15;;
23099;SDS011;53791;50.696;4.396;2023-01-29T15:05:26;4.92;;;3.90;;
23099;SDS011;53791;50.696;4.396;2023-01-29T15:08:12;2.17;;;1.87;;
23099;SDS011;53791;50.696;4.396;2023-01-29T15:13:18;2.98;;;2.42;;
23099;SDS011;53791;50.696;4.396;2023-01-29T15:15:55;3.08;;;2.02;;
23099;SDS011;53791;50.696;4.396;2023-01-29T15:18:32;2.87;;;2.60;;
23099;SDS011;53791;50.696;4.396;2023-01-29T15:21:09;2.50;;;2.20;;
23099;SDS011;53791;50.696;4.396;2023-01-29T15:23:39;4.80;;;2.72;;
23099;SDS011;53791;50.696;4.396;2023-01-29T15:26:17;2.30;;;2.02;;
23099;SDS011;53791;50.696;4.396;2023-01-29T15:28:53;4.97;;;3.02;;
23099;SDS011;53791;50.696;4.396;2023-01-29T15:31:22;4.03;;;3.02;;
23099;SDS011;53791;50.696;4.396;2023-01-29T15:33:50;6.87;;;3.08;;
23099;SDS011;53791;50.696;4.396;2023-01-29T15:36:23;3.37;;;2.65;;
23099;SDS011;53791;50.696;4.396;2023-01-29T15:41:42;5.22;;;3.12;;
23099;SDS011;53791;50.696;4.396;2023-01-29T15:44:13;4.95;;;2.62;;
23099;SDS011;53791;50.696;4.396;2023-01-29T15:46:44;2.67;;;2.35;;
23099;SDS011;53791;50.696;4.396;2023-01-29T15:49:17;4.28;;;2.87;;
23099;SDS011;53791;50.696;4.396;2023-01-29T15:51:53;5.33;;;3.70;;
23099;SDS011;53791;50.696;4.396;2023-01-29T15:54:23;5.12;;;3.08;;
23099;SDS011;53791;50.696;4.396;2023-01-29T15:56:51;12.07;;;5.12;;
23099;SDS011;53791;50.696;4.396;2023-01-29T15:59:25;6.53;;;3.85;;
23099;SDS011;53791;50.696;4.396;2023-01-29T16:01:50;4.05;;;2.83;;
23099;SDS011;53791;50.696;4.396;2023-01-29T16:04:29;12.43;;;4.78;;
23099;SDS011;53791;50.696;4.396;2023-01-29T16:06:56;4.65;;;2.77;;
23099;SDS011;53791;50.696;4.396;2023-01-29T16:09:24;4.37;;;3.08;;
23099;SDS011;53791;50.696;4.396;2023-01-29T16:11:53;8.43;;;3.42;;
23099;SDS011;53791;50.696;4.396;2023-01-29T16:14:24;5.00;;;2.85;;
23099;SDS011;53791;50.696;4.396;2023-01-29T16:16:54;3.80;;;2.87;;
23099;SDS011;53791;50.696;4.396;2023-01-29T16:19:22;4.05;;;3.30;;
23099;SDS011;53791;50.696;4.396;2023-01-29T16:21:53;4.65;;;3.45;;
23099;SDS011;53791;50.696;4.396;2023-01-29T16:24:24;5.72;;;3.15;;
23099;SDS011;53791;50.696;4.396;2023-01-29T16:29:30;6.33;;;3.47;;
23099;SDS011;53791;50.696;4.396;2023-01-29T16:31:59;6.17;;;3.98;;
23099;SDS011;53791;50.696;4.396;2023-01-29T16:34:29;5.05;;;3.35;;
23099;SDS011;53791;50.696;4.396;2023-01-29T16:37:01;7.25;;;4.87;;
23099;SDS011;53791;50.696;4.396;2023-01-29T16:39:32;7.33;;;4.37;;
23099;SDS011;53791;50.696;4.396;2023-01-29T16:44:45;8.20;;;2.80;;